sensor_id;sensor_type;location;lat;lon;timestamp;temperature;humidity
53272;DHT22;39160;48.580;7.756;2023-01-19T00:03:03;1.60;99.90
53272;DHT22;39160;48.580;7.756;2023-01-19T00:07:53;1.50;99.90
53272;DHT22;39160;48.580;7.756;2023-01-19T00:12:44;1.50;99.90
53272;DHT22;39160;48.580;7.756;2023-01-19T00:17:34;1.50;99.90
53272;DHT22;39160;48.580;7.756;2023-01-19T00:22:25;1.50;99.90
53272;DHT22;39160;48.580;7.756;2023-01-19T00:27:16;1.40;99.90
53272;DHT22;39160;48.580;7.756;2023-01-19T00:32:07;1.50;99.90
53272;DHT22;39160;48.580;7.756;2023-01-19T00:36:57;1.60;99.90
53272;DHT22;39160;48.580;7.756;2023-01-19T00:41:51;1.70;99.90
53272;DHT22;39160;48.580;7.756;2023-01-19T00:47:00;1.80;99.90
53272;DHT22;39160;48.580;7.756;2023-01-19T00:51:54;1.80;99.90
53272;DHT22;39160;48.580;7.756;2023-01-19T00:56:44;1.70;99.90
53272;DHT22;39160;48.580;7.756;2023-01-19T01:01:35;1.80;99.90
53272;DHT22;39160;48.580;7.756;2023-01-19T01:06:25;1.80;99.90
53272;DHT22;39160;48.580;7.756;2023-01-19T01:11:16;1.80;99.90
53272;DHT22;39160;48.580;7.756;2023-01-19T01:16:07;1.80;99.90
53272;DHT22;39160;48.580;7.756;2023-01-19T01:21:06;1.70;99.90
53272;DHT22;39160;48.580;7.756;2023-01-19T01:25:56;1.60;99.90
53272;DHT22;39160;48.580;7.756;2023-01-19T01:30:48;1.70;99.90
53272;DHT22;39160;48.580;7.756;2023-01-19T01:35:42;1.80;99.90
53272;DHT22;39160;48.580;7.756;2023-01-19T01:40:32;1.80;99.90
53272;DHT22;39160;48.580;7.756;2023-01-19T01:45:32;1.80;99.90
53272;DHT22;39160;48.580;7.756;2023-01-19T01:50:26;1.80;99.90
53272;DHT22;39160;48.580;7.756;2023-01-19T01:55:19;1.80;99.90
53272;DHT22;39160;48.580;7.756;2023-01-19T02:00:10;1.60;99.90
53272;DHT22;39160;48.580;7.756;2023-01-19T02:05:04;1.60;99.90
53272;DHT22;39160;48.580;7.756;2023-01-19T02:09:56;1.60;99.90
53272;DHT22;39160;48.580;7.756;2023-01-19T02:15:05;1.70;99.90
53272;DHT22;39160;48.580;7.756;2023-01-19T02:19:56;1.60;99.90
53272;DHT22;39160;48.580;7.756;2023-01-19T02:24:47;1.70;99.90
53272;DHT22;39160;48.580;7.756;2023-01-19T02:29:39;1.70;99.90
53272;DHT22;39160;48.580;7.756;2023-01-19T02:34:30;1.70;99.90
53272;DHT22;39160;48.580;7.756;2023-01-19T02:39:40;1.70;99.90
53272;DHT22;39160;48.580;7.756;2023-01-19T02:44:32;1.70;99.90
53272;DHT22;39160;48.580;7.756;2023-01-19T02:49:27;1.80;99.90
53272;DHT22;39160;48.580;7.756;2023-01-19T02:59:34;1.80;99.90
53272;DHT22;39160;48.580;7.756;2023-01-19T03:09:52;1.50;99.90
53272;DHT22;39160;48.580;7.756;2023-01-19T03:14:46;1.50;99.90
53272;DHT22;39160;48.580;7.756;2023-01-19T03:19:40;1.50;99.90
53272;DHT22;39160;48.580;7.756;2023-01-19T03:24:35;1.40;99.90
53272;DHT22;39160;48.580;7.756;2023-01-19T03:29:30;1.30;99.90
53272;DHT22;39160;48.580;7.756;2023-01-19T03:34:22;1.30;99.90
53272;DHT22;39160;48.580;7.756;2023-01-19T03:39:15;1.30;99.90
53272;DHT22;39160;48.580;7.756;2023-01-19T03:44:08;1.30;99.90
53272;DHT22;39160;48.580;7.756;2023-01-19T03:49:01;1.30;99.90
53272;DHT22;39160;48.580;7.756;2023-01-19T03:53:52;1.20;99.90
53272;DHT22;39160;48.580;7.756;2023-01-19T03:58:42;1.20;99.90
53272;DHT22;39160;48.580;7.756;2023-01-19T04:03:33;1.20;99.90
53272;DHT22;39160;48.580;7.756;2023-01-19T04:08:23;1.10;99.90
53272;DHT22;39160;48.580;7.756;2023-01-19T04:13:14;1.20;99.90
53272;DHT22;39160;48.580;7.756;2023-01-19T04:18:05;1.10;99.90
53272;DHT22;39160;48.580;7.756;2023-01-19T04:22:59;1.00;99.90
53272;DHT22;39160;48.580;7.756;2023-01-19T04:27:51;1.10;99.90
53272;DHT22;39160;48.580;7.756;2023-01-19T04:32:42;1.20;99.90
53272;DHT22;39160;48.580;7.756;2023-01-19T04:37:33;1.30;99.90
53272;DHT22;39160;48.580;7.756;2023-01-19T04:42:24;1.30;99.90
53272;DHT22;39160;48.580;7.756;2023-01-19T04:47:14;1.30;99.90
53272;DHT22;39160;48.580;7.756;2023-01-19T04:52:05;1.20;99.90
53272;DHT22;39160;48.580;7.756;2023-01-19T04:56:56;1.20;99.90
53272;DHT22;39160;48.580;7.756;2023-01-19T05:01:47;1.30;99.90
53272;DHT22;39160;48.580;7.756;2023-01-19T05:06:37;1.20;99.90
53272;DHT22;39160;48.580;7.756;2023-01-19T05:11:28;1.20;99.90
53272;DHT22;39160;48.580;7.756;2023-01-19T05:16:19;1.10;99.90
53272;DHT22;39160;48.580;7.756;2023-01-19T05:21:09;1.10;99.90
53272;DHT22;39160;48.580;7.756;2023-01-19T05:26:00;1.10;99.90
53272;DHT22;39160;48.580;7.756;2023-01-19T05:30:51;1.20;99.90
53272;DHT22;39160;48.580;7.756;2023-01-19T05:35:43;1.20;99.90
53272;DHT22;39160;48.580;7.756;2023-01-19T05:40:34;1.10;99.90
53272;DHT22;39160;48.580;7.756;2023-01-19T05:45:26;1.20;99.90
53272;DHT22;39160;48.580;7.756;2023-01-19T05:50:17;1.20;99.90
53272;DHT22;39160;48.580;7.756;2023-01-19T05:55:08;1.20;99.90
53272;DHT22;39160;48.580;7.756;2023-01-19T05:59:59;1.40;99.90
53272;DHT22;39160;48.580;7.756;2023-01-19T06:04:49;1.40;99.90
53272;DHT22;39160;48.580;7.756;2023-01-19T06:09:40;1.40;99.90
53272;DHT22;39160;48.580;7.756;2023-01-19T06:14:31;1.40;99.90
53272;DHT22;39160;48.580;7.756;2023-01-19T06:19:21;1.50;99.90
53272;DHT22;39160;48.580;7.756;2023-01-19T06:24:12;1.50;99.90
53272;DHT22;39160;48.580;7.756;2023-01-19T06:29:03;1.50;99.90
53272;DHT22;39160;48.580;7.756;2023-01-19T06:33:54;1.50;99.90
53272;DHT22;39160;48.580;7.756;2023-01-19T06:38:44;1.50;99.90
53272;DHT22;39160;48.580;7.756;2023-01-19T06:43:35;1.50;99.90
53272;DHT22;39160;48.580;7.756;2023-01-19T06:48:26;1.40;99.90
53272;DHT22;39160;48.580;7.756;2023-01-19T06:53:17;1.40;99.90
53272;DHT22;39160;48.580;7.756;2023-01-19T06:58:10;1.40;99.90
53272;DHT22;39160;48.580;7.756;2023-01-19T07:03:01;1.50;99.90
53272;DHT22;39160;48.580;7.756;2023-01-19T07:07:56;1.50;99.90
53272;DHT22;39160;48.580;7.756;2023-01-19T07:12:47;1.50;99.90
53272;DHT22;39160;48.580;7.756;2023-01-19T07:17:37;1.50;99.90
53272;DHT22;39160;48.580;7.756;2023-01-19T07:22:28;1.50;99.90
53272;DHT22;39160;48.580;7.756;2023-01-19T07:27:18;1.60;99.90
53272;DHT22;39160;48.580;7.756;2023-01-19T07:32:10;1.50;99.90
53272;DHT22;39160;48.580;7.756;2023-01-19T07:37:02;1.60;99.90
53272;DHT22;39160;48.580;7.756;2023-01-19T07:41:53;1.60;99.90
53272;DHT22;39160;48.580;7.756;2023-01-19T07:46:44;1.60;99.90
53272;DHT22;39160;48.580;7.756;2023-01-19T07:51:35;1.70;99.90
53272;DHT22;39160;48.580;7.756;2023-01-19T07:56:26;1.80;99.90
53272;DHT22;39160;48.580;7.756;2023-01-19T08:01:18;1.80;99.90
53272;DHT22;39160;48.580;7.756;2023-01-19T08:06:21;1.90;99.90
53272;DHT22;39160;48.580;7.756;2023-01-19T08:11:12;1.90;99.90
53272;DHT22;39160;48.580;7.756;2023-01-19T08:16:02;1.90;99.90
53272;DHT22;39160;48.580;7.756;2023-01-19T08:20:54;1.90;99.90
53272;DHT22;39160;48.580;7.756;2023-01-19T08:25:45;1.80;99.90
53272;DHT22;39160;48.580;7.756;2023-01-19T08:30:36;1.90;99.90
53272;DHT22;39160;48.580;7.756;2023-01-19T08:35:31;1.90;99.90
53272;DHT22;39160;48.580;7.756;2023-01-19T08:40:22;2.00;99.90
53272;DHT22;39160;48.580;7.756;2023-01-19T08:45:12;2.20;99.90
53272;DHT22;39160;48.580;7.756;2023-01-19T08:50:03;2.30;99.90
53272;DHT22;39160;48.580;7.756;2023-01-19T08:54:54;2.40;99.90
53272;DHT22;39160;48.580;7.756;2023-01-19T08:59:45;2.50;99.90
53272;DHT22;39160;48.580;7.756;2023-01-19T09:04:36;2.60;99.90
53272;DHT22;39160;48.580;7.756;2023-01-19T09:09:27;2.50;99.90
53272;DHT22;39160;48.580;7.756;2023-01-19T09:14:18;2.60;99.90
53272;DHT22;39160;48.580;7.756;2023-01-19T09:19:08;2.70;99.90
53272;DHT22;39160;48.580;7.756;2023-01-19T09:23:59;2.70;99.90
53272;DHT22;39160;48.580;7.756;2023-01-19T09:28:50;2.70;99.90
53272;DHT22;39160;48.580;7.756;2023-01-19T09:33:40;2.80;99.90
53272;DHT22;39160;48.580;7.756;2023-01-19T09:38:31;2.90;99.90
53272;DHT22;39160;48.580;7.756;2023-01-19T09:43:32;3.10;99.90
53272;DHT22;39160;48.580;7.756;2023-01-19T09:48:47;3.00;99.90
53272;DHT22;39160;48.580;7.756;2023-01-19T09:58:41;2.90;99.90
53272;DHT22;39160;48.580;7.756;2023-01-19T10:03:35;2.90;99.90
53272;DHT22;39160;48.580;7.756;2023-01-19T10:08:33;2.90;99.90
53272;DHT22;39160;48.580;7.756;2023-01-19T10:28:31;3.40;99.90
53272;DHT22;39160;48.580;7.756;2023-01-19T10:33:25;3.40;99.90
53272;DHT22;39160;48.580;7.756;2023-01-19T10:38:16;3.60;99.90
53272;DHT22;39160;48.580;7.756;2023-01-19T10:43:41;3.50;99.90
53272;DHT22;39160;48.580;7.756;2023-01-19T10:48:39;3.50;99.90
53272;DHT22;39160;48.580;7.756;2023-01-19T10:53:31;3.60;99.90
53272;DHT22;39160;48.580;7.756;2023-01-19T10:58:29;3.60;99.90
53272;DHT22;39160;48.580;7.756;2023-01-19T11:03:30;3.50;99.90
53272;DHT22;39160;48.580;7.756;2023-01-19T11:08:27;3.50;99.90
53272;DHT22;39160;48.580;7.756;2023-01-19T11:13:18;3.80;99.90
53272;DHT22;39160;48.580;7.756;2023-01-19T11:18:29;4.00;99.90
53272;DHT22;39160;48.580;7.756;2023-01-19T11:23:27;4.20;99.90
53272;DHT22;39160;48.580;7.756;2023-01-19T11:28:21;4.20;99.90
53272;DHT22;39160;48.580;7.756;2023-01-19T11:33:34;4.30;99.90
53272;DHT22;39160;48.580;7.756;2023-01-19T11:38:26;4.50;99.90
53272;DHT22;39160;48.580;7.756;2023-01-19T11:43:16;4.50;99.90
53272;DHT22;39160;48.580;7.756;2023-01-19T11:48:14;4.50;99.90
53272;DHT22;39160;48.580;7.756;2023-01-19T11:53:20;4.50;99.90
53272;DHT22;39160;48.580;7.756;2023-01-19T11:58:15;4.60;99.90
53272;DHT22;39160;48.580;7.756;2023-01-19T12:03:14;4.40;99.90
53272;DHT22;39160;48.580;7.756;2023-01-19T12:08:13;4.10;99.90
53272;DHT22;39160;48.580;7.756;2023-01-19T12:13:05;4.00;99.90
53272;DHT22;39160;48.580;7.756;2023-01-19T12:17:58;3.90;99.90
53272;DHT22;39160;48.580;7.756;2023-01-19T12:23:16;3.90;99.90
53272;DHT22;39160;48.580;7.756;2023-01-19T12:28:02;3.90;99.90
53272;DHT22;39160;48.580;7.756;2023-01-19T12:33:30;3.80;99.90
53272;DHT22;39160;48.580;7.756;2023-01-19T12:39:00;3.50;99.90
53272;DHT22;39160;48.580;7.756;2023-01-19T12:54:27;3.30;99.90
53272;DHT22;39160;48.580;7.756;2023-01-19T12:59:23;3.40;99.90
53272;DHT22;39160;48.580;7.756;2023-01-19T13:04:31;3.40;99.90
53272;DHT22;39160;48.580;7.756;2023-01-19T13:09:32;3.30;99.90
53272;DHT22;39160;48.580;7.756;2023-01-19T13:14:35;3.30;99.90
53272;DHT22;39160;48.580;7.756;2023-01-19T13:19:34;3.40;99.90
53272;DHT22;39160;48.580;7.756;2023-01-19T13:29:55;3.70;99.90
53272;DHT22;39160;48.580;7.756;2023-01-19T13:34:54;3.70;99.90
53272;DHT22;39160;48.580;7.756;2023-01-19T13:39:51;3.70;99.90
53272;DHT22;39160;48.580;7.756;2023-01-19T13:44:48;3.70;99.90
53272;DHT22;39160;48.580;7.756;2023-01-19T13:49:44;3.90;99.90
53272;DHT22;39160;48.580;7.756;2023-01-19T13:54:35;3.90;99.90
53272;DHT22;39160;48.580;7.756;2023-01-19T13:59:26;4.00;99.90
53272;DHT22;39160;48.580;7.756;2023-01-19T14:04:30;4.00;99.90
53272;DHT22;39160;48.580;7.756;2023-01-19T14:09:21;3.90;99.90
53272;DHT22;39160;48.580;7.756;2023-01-19T14:14:23;4.00;99.90
53272;DHT22;39160;48.580;7.756;2023-01-19T14:19:14;4.10;99.90
53272;DHT22;39160;48.580;7.756;2023-01-19T14:24:13;4.10;99.90
53272;DHT22;39160;48.580;7.756;2023-01-19T14:33:59;4.20;99.90
53272;DHT22;39160;48.580;7.756;2023-01-19T14:38:50;4.10;99.90
53272;DHT22;39160;48.580;7.756;2023-01-19T14:43:43;4.10;99.90
53272;DHT22;39160;48.580;7.756;2023-01-19T14:48:34;4.10;99.90
53272;DHT22;39160;48.580;7.756;2023-01-19T14:53:24;4.10;99.90
53272;DHT22;39160;48.580;7.756;2023-01-19T14:58:19;4.10;99.90
53272;DHT22;39160;48.580;7.756;2023-01-19T15:03:10;4.10;99.90
53272;DHT22;39160;48.580;7.756;2023-01-19T15:08:02;4.10;99.90
53272;DHT22;39160;48.580;7.756;2023-01-19T15:12:54;4.10;99.90
53272;DHT22;39160;48.580;7.756;2023-01-19T15:17:45;4.10;99.90
53272;DHT22;39160;48.580;7.756;2023-01-19T15:22:36;4.00;99.90
53272;DHT22;39160;48.580;7.756;2023-01-19T15:27:26;4.00;99.90
53272;DHT22;39160;48.580;7.756;2023-01-19T15:32:17;4.10;99.90
53272;DHT22;39160;48.580;7.756;2023-01-19T15:37:08;4.10;99.90
53272;DHT22;39160;48.580;7.756;2023-01-19T15:41:59;3.90;99.90
53272;DHT22;39160;48.580;7.756;2023-01-19T15:46:49;3.80;99.90
53272;DHT22;39160;48.580;7.756;2023-01-19T15:51:40;4.00;99.90
53272;DHT22;39160;48.580;7.756;2023-01-19T15:56:31;3.90;99.90
53272;DHT22;39160;48.580;7.756;2023-01-19T16:01:24;3.90;99.90
53272;DHT22;39160;48.580;7.756;2023-01-19T16:06:20;3.90;99.90
53272;DHT22;39160;48.580;7.756;2023-01-19T16:11:13;3.90;99.90
53272;DHT22;39160;48.580;7.756;2023-01-19T16:16:07;3.90;99.90
53272;DHT22;39160;48.580;7.756;2023-01-19T16:20:58;3.70;99.90
53272;DHT22;39160;48.580;7.756;2023-01-19T16:26:00;3.80;99.90
53272;DHT22;39160;48.580;7.756;2023-01-19T16:30:54;3.80;99.90
53272;DHT22;39160;48.580;7.756;2023-01-19T16:35:44;3.70;99.90
53272;DHT22;39160;48.580;7.756;2023-01-19T16:40:35;3.70;99.90
53272;DHT22;39160;48.580;7.756;2023-01-19T16:45:26;3.80;99.90
53272;DHT22;39160;48.580;7.756;2023-01-19T16:50:17;3.80;99.90
53272;DHT22;39160;48.580;7.756;2023-01-19T16:55:08;3.80;99.90
53272;DHT22;39160;48.580;7.756;2023-01-19T17:00:00;3.70;99.90
53272;DHT22;39160;48.580;7.756;2023-01-19T17:04:51;3.80;99.90
53272;DHT22;39160;48.580;7.756;2023-01-19T17:09:42;3.80;99.90
53272;DHT22;39160;48.580;7.756;2023-01-19T17:14:32;3.70;99.90
53272;DHT22;39160;48.580;7.756;2023-01-19T17:19:23;3.70;99.90
53272;DHT22;39160;48.580;7.756;2023-01-19T17:24:14;3.70;99.90
53272;DHT22;39160;48.580;7.756;2023-01-19T17:29:07;3.70;99.90
53272;DHT22;39160;48.580;7.756;2023-01-19T17:33:59;3.70;99.90
53272;DHT22;39160;48.580;7.756;2023-01-19T17:38:51;3.70;99.90
53272;DHT22;39160;48.580;7.756;2023-01-19T17:43:43;3.60;99.90
53272;DHT22;39160;48.580;7.756;2023-01-19T17:48:53;3.60;99.90
53272;DHT22;39160;48.580;7.756;2023-01-19T17:53:44;3.60;99.90
53272;DHT22;39160;48.580;7.756;2023-01-19T17:58:34;3.50;99.90
53272;DHT22;39160;48.580;7.756;2023-01-19T18:03:25;3.50;99.90
53272;DHT22;39160;48.580;7.756;2023-01-19T18:08:15;3.50;99.90
53272;DHT22;39160;48.580;7.756;2023-01-19T18:13:06;3.50;99.90
53272;DHT22;39160;48.580;7.756;2023-01-19T18:17:57;3.50;99.90
53272;DHT22;39160;48.580;7.756;2023-01-19T18:22:47;3.50;99.90
53272;DHT22;39160;48.580;7.756;2023-01-19T18:27:38;3.50;99.90
53272;DHT22;39160;48.580;7.756;2023-01-19T18:32:28;3.40;99.90
53272;DHT22;39160;48.580;7.756;2023-01-19T18:37:19;3.50;99.90
53272;DHT22;39160;48.580;7.756;2023-01-19T18:42:11;3.50;99.90
53272;DHT22;39160;48.580;7.756;2023-01-19T18:47:01;3.50;99.90
53272;DHT22;39160;48.580;7.756;2023-01-19T18:51:52;3.40;99.90
53272;DHT22;39160;48.580;7.756;2023-01-19T18:56:43;3.40;99.90
53272;DHT22;39160;48.580;7.756;2023-01-19T19:01:33;3.50;99.90
53272;DHT22;39160;48.580;7.756;2023-01-19T19:06:25;3.50;99.90
53272;DHT22;39160;48.580;7.756;2023-01-19T19:11:17;3.50;99.90
53272;DHT22;39160;48.580;7.756;2023-01-19T19:16:09;3.30;99.90
53272;DHT22;39160;48.580;7.756;2023-01-19T19:21:05;3.30;99.90
53272;DHT22;39160;48.580;7.756;2023-01-19T19:26:01;3.30;99.90
53272;DHT22;39160;48.580;7.756;2023-01-19T19:31:04;3.30;99.90
53272;DHT22;39160;48.580;7.756;2023-01-19T19:35:56;3.20;99.90
53272;DHT22;39160;48.580;7.756;2023-01-19T19:40:47;3.30;99.90
53272;DHT22;39160;48.580;7.756;2023-01-19T19:45:38;3.40;99.90
53272;DHT22;39160;48.580;7.756;2023-01-19T19:50:29;3.40;99.90
53272;DHT22;39160;48.580;7.756;2023-01-19T19:55:22;3.40;99.90
53272;DHT22;39160;48.580;7.756;2023-01-19T20:00:13;3.40;99.90
53272;DHT22;39160;48.580;7.756;2023-01-19T20:05:04;3.40;99.90
53272;DHT22;39160;48.580;7.756;2023-01-19T20:09:54;3.40;99.90
53272;DHT22;39160;48.580;7.756;2023-01-19T20:14:45;3.30;99.90
53272;DHT22;39160;48.580;7.756;2023-01-19T20:19:36;3.30;99.90
53272;DHT22;39160;48.580;7.756;2023-01-19T20:24:26;3.40;99.90
53272;DHT22;39160;48.580;7.756;2023-01-19T20:29:18;3.50;99.90
53272;DHT22;39160;48.580;7.756;2023-01-19T20:34:11;3.40;99.90
53272;DHT22;39160;48.580;7.756;2023-01-19T20:39:03;3.40;99.90
53272;DHT22;39160;48.580;7.756;2023-01-19T20:43:57;3.40;99.90
53272;DHT22;39160;48.580;7.756;2023-01-19T20:48:48;3.30;99.90
53272;DHT22;39160;48.580;7.756;2023-01-19T20:53:42;3.30;99.90
53272;DHT22;39160;48.580;7.756;2023-01-19T20:58:32;3.30;99.90
53272;DHT22;39160;48.580;7.756;2023-01-19T21:03:23;3.30;99.90
53272;DHT22;39160;48.580;7.756;2023-01-19T21:08:14;3.30;99.90
53272;DHT22;39160;48.580;7.756;2023-01-19T21:13:05;3.30;99.90
53272;DHT22;39160;48.580;7.756;2023-01-19T21:17:56;3.30;99.90
53272;DHT22;39160;48.580;7.756;2023-01-19T21:22:46;3.40;99.90
53272;DHT22;39160;48.580;7.756;2023-01-19T21:27:37;3.40;99.90
53272;DHT22;39160;48.580;7.756;2023-01-19T21:32:28;3.40;99.90
53272;DHT22;39160;48.580;7.756;2023-01-19T21:37:19;3.40;99.90
53272;DHT22;39160;48.580;7.756;2023-01-19T21:42:10;3.30;99.90
53272;DHT22;39160;48.580;7.756;2023-01-19T21:47:00;3.30;99.90
53272;DHT22;39160;48.580;7.756;2023-01-19T21:51:51;3.30;99.90
53272;DHT22;39160;48.580;7.756;2023-01-19T21:56:42;3.40;99.90
53272;DHT22;39160;48.580;7.756;2023-01-19T22:01:33;3.30;99.90
53272;DHT22;39160;48.580;7.756;2023-01-19T22:06:25;3.30;99.90
53272;DHT22;39160;48.580;7.756;2023-01-19T22:11:17;3.30;99.90
53272;DHT22;39160;48.580;7.756;2023-01-19T22:16:13;3.20;99.90
53272;DHT22;39160;48.580;7.756;2023-01-19T22:26:01;3.20;99.90
53272;DHT22;39160;48.580;7.756;2023-01-19T22:30:53;3.20;99.90
53272;DHT22;39160;48.580;7.756;2023-01-19T22:35:43;3.30;99.90
53272;DHT22;39160;48.580;7.756;2023-01-19T22:40:34;3.20;99.90
53272;DHT22;39160;48.580;7.756;2023-01-19T22:45:24;3.20;99.90
53272;DHT22;39160;48.580;7.756;2023-01-19T22:50:15;3.10;99.90
53272;DHT22;39160;48.580;7.756;2023-01-19T22:55:06;3.20;99.90
53272;DHT22;39160;48.580;7.756;2023-01-19T22:59:57;3.30;99.90
53272;DHT22;39160;48.580;7.756;2023-01-19T23:04:47;3.30;99.90
53272;DHT22;39160;48.580;7.756;2023-01-19T23:09:38;3.10;99.90
53272;DHT22;39160;48.580;7.756;2023-01-19T23:14:28;3.10;99.90
53272;DHT22;39160;48.580;7.756;2023-01-19T23:19:19;3.00;99.90
53272;DHT22;39160;48.580;7.756;2023-01-19T23:24:10;3.00;99.90
53272;DHT22;39160;48.580;7.756;2023-01-19T23:29:01;3.00;99.90
53272;DHT22;39160;48.580;7.756;2023-01-19T23:33:56;2.90;99.90
53272;DHT22;39160;48.580;7.756;2023-01-19T23:38:49;2.90;99.90
53272;DHT22;39160;48.580;7.756;2023-01-19T23:43:40;3.00;99.90
53272;DHT22;39160;48.580;7.756;2023-01-19T23:48:33;3.10;99.90
53272;DHT22;39160;48.580;7.756;2023-01-19T23:53:24;3.10;99.90
53272;DHT22;39160;48.580;7.756;2023-01-19T23:58:19;3.30;99.90
